createdAt,value
2022-08-05T00:08:37.926Z,2.65
2022-08-05T00:18:39.272Z,2.70
2022-08-05T00:28:40.629Z,3.72
2022-08-05T00:38:42.363Z,2.97
2022-08-05T00:48:51.396Z,2.63
2022-08-05T00:58:52.915Z,2.72
2022-08-05T01:08:55.003Z,2.85
2022-08-05T01:18:56.752Z,2.90
2022-08-05T01:28:58.159Z,2.83
2022-08-05T01:39:05.791Z,2.60
2022-08-05T01:49:22.661Z,3.17
2022-08-05T01:59:26.028Z,3.75
2022-08-05T02:09:27.394Z,3.00
2022-08-05T02:19:34.200Z,2.80
2022-08-05T02:29:58.434Z,2.70
2022-08-05T02:39:57.534Z,3.38
2022-08-05T02:49:58.875Z,3.40
2022-08-05T03:00:02.207Z,2.93
2022-08-05T03:10:03.584Z,3.35
2022-08-05T03:20:05.379Z,3.28
2022-08-05T03:30:09.102Z,4.05
2022-08-05T03:40:11.869Z,4.13
2022-08-05T03:50:13.487Z,4.37
2022-08-05T04:00:16.415Z,4.53
2022-08-05T04:10:17.961Z,5.57
2022-08-05T04:20:20.030Z,4.03
2022-08-05T04:30:21.335Z,2.55
2022-08-05T04:40:22.692Z,2.70
2022-08-05T04:50:37.294Z,2.42
2022-08-05T05:00:45.573Z,2.50
2022-08-05T05:10:55.899Z,2.42
2022-08-05T05:20:58.574Z,2.20
2022-08-05T05:31:00.111Z,2.60
2022-08-05T05:41:01.926Z,2.20
2022-08-05T05:51:15.168Z,2.17
2022-08-05T06:11:24.721Z,3.00
2022-08-05T06:21:36.668Z,2.20
2022-08-05T06:31:39.163Z,2.17
2022-08-05T06:41:43.374Z,2.20
2022-08-05T06:51:45.092Z,2.30
2022-08-05T07:01:46.427Z,2.17
2022-08-05T07:11:55.837Z,2.35
2022-08-05T07:22:02.734Z,2.30
2022-08-05T07:32:04.110Z,2.28
2022-08-05T07:42:08.574Z,2.10
2022-08-05T07:52:16.213Z,2.45
2022-08-05T08:02:19.451Z,2.10
2022-08-05T08:12:48.705Z,2.00
2022-08-05T08:22:49.464Z,1.58
2022-08-05T08:32:51.169Z,2.17
2022-08-05T08:42:52.828Z,2.17
2022-08-05T08:52:54.485Z,2.10
2022-08-05T09:02:57.103Z,2.00
2022-08-05T09:13:04.980Z,1.85
2022-08-05T09:23:07.831Z,1.95
2022-08-05T09:33:10.677Z,1.80
2022-08-05T09:43:18.427Z,2.10
2022-08-05T10:03:58.606Z,1.88
2022-08-05T10:14:00.569Z,2.13
2022-08-05T10:24:04.129Z,2.15
2022-08-05T10:34:08.961Z,2.15
2022-08-05T10:44:10.315Z,1.77
2022-08-05T10:54:28.606Z,1.60
2022-08-05T11:04:34.373Z,1.95
2022-08-05T11:26:03.374Z,2.20
2022-08-05T11:35:21.623Z,2.20
2022-08-05T11:46:30.601Z,2.10
2022-08-05T11:55:48.769Z,2.63
2022-08-05T12:05:54.752Z,2.33
2022-08-05T12:15:57.118Z,2.30
2022-08-05T12:25:59.690Z,2.55
2022-08-05T12:36:01.058Z,2.78
2022-08-05T12:46:02.445Z,2.30
2022-08-05T12:56:03.935Z,3.05
2022-08-05T13:06:05.530Z,3.00
2022-08-05T13:16:06.790Z,3.22
2022-08-05T13:26:12.027Z,3.45
2022-08-05T13:46:35.745Z,3.15
2022-08-05T13:56:38.377Z,2.80
2022-08-05T14:06:39.703Z,2.92
2022-08-05T14:16:51.123Z,3.83
2022-08-05T14:27:17.213Z,3.97
2022-08-05T14:37:17.970Z,3.80
2022-08-05T14:47:58.277Z,3.15
2022-08-05T14:57:54.302Z,3.10
2022-08-05T15:08:06.502Z,2.78
2022-08-05T15:18:14.729Z,2.70
2022-08-05T15:28:18.787Z,2.60
2022-08-05T15:38:35.815Z,2.45
2022-08-05T15:48:38.059Z,2.25
2022-08-05T15:58:56.208Z,2.63
2022-08-05T16:08:57.988Z,3.20
2022-08-05T16:18:59.421Z,5.68
2022-08-05T16:29:01.693Z,8.57
2022-08-05T16:39:03.588Z,5.55
2022-08-05T16:49:05.942Z,4.20
2022-08-05T16:59:08.932Z,4.82
2022-08-05T17:09:10.243Z,4.88
2022-08-05T17:19:11.856Z,4.72
2022-08-05T17:29:13.371Z,4.78
2022-08-05T17:39:23.668Z,4.80
2022-08-05T17:49:25.954Z,5.00
2022-08-05T17:59:52.795Z,5.03
2022-08-05T18:10:09.990Z,4.43
2022-08-05T18:20:14.871Z,3.42
2022-08-05T18:30:16.364Z,4.25
2022-08-05T18:40:34.425Z,4.38
2022-08-05T18:52:03.340Z,3.67
2022-08-05T19:01:19.446Z,3.25
2022-08-05T19:11:37.064Z,2.58
2022-08-05T19:21:56.193Z,2.28
2022-08-05T19:32:00.239Z,1.80
2022-08-05T19:42:07.823Z,1.50
2022-08-05T19:52:40.301Z,1.42
2022-08-05T20:02:33.501Z,1.50
2022-08-05T20:12:37.294Z,1.40
2022-08-05T20:22:38.599Z,1.35
2022-08-05T20:42:46.935Z,1.20
2022-08-05T20:52:48.330Z,1.20
2022-08-05T21:02:57.046Z,1.50
2022-08-05T21:13:11.202Z,1.23
2022-08-05T21:23:16.088Z,1.50
2022-08-05T21:33:22.267Z,1.30
2022-08-05T21:43:25.154Z,1.40
2022-08-05T21:53:27.509Z,1.58
2022-08-05T22:03:48.285Z,1.73
2022-08-05T22:14:19.586Z,1.92
2022-08-05T22:24:40.533Z,1.50
2022-08-05T22:34:42.424Z,1.50
2022-08-05T22:44:48.496Z,1.77
2022-08-05T22:54:58.207Z,1.55
2022-08-05T23:05:01.607Z,1.95
2022-08-05T23:15:08.455Z,1.80
2022-08-05T23:25:11.488Z,1.60
2022-08-05T23:35:12.840Z,2.25
2022-08-05T23:45:15.835Z,1.70
2022-08-05T23:55:17.275Z,1.73
